sensor_id;sensor_type;location;lat;lon;timestamp;P1;durP1;ratioP1;P2;durP2;ratioP2
81930;SDS011;71395;43.488;1.472;2023-08-21T00:02:20;4.13;;;2.63;;
81930;SDS011;71395;43.488;1.472;2023-08-21T00:04:46;4.38;;;2.65;;
81930;SDS011;71395;43.488;1.472;2023-08-21T00:07:12;3.75;;;2.75;;
81930;SDS011;71395;43.488;1.472;2023-08-21T00:09:37;5.65;;;3.05;;
81930;SDS011;71395;43.488;1.472;2023-08-21T00:12:03;5.07;;;2.83;;
81930;SDS011;71395;43.488;1.472;2023-08-21T00:14:29;4.63;;;2.63;;
81930;SDS011;71395;43.488;1.472;2023-08-21T00:16:54;4.47;;;2.60;;
81930;SDS011;71395;43.488;1.472;2023-08-21T00:19:19;4.22;;;3.00;;
81930;SDS011;71395;43.488;1.472;2023-08-21T00:21:45;5.22;;;3.00;;
81930;SDS011;71395;43.488;1.472;2023-08-21T00:24:10;5.95;;;3.42;;
81930;SDS011;71395;43.488;1.472;2023-08-21T00:26:36;4.15;;;2.58;;
81930;SDS011;71395;43.488;1.472;2023-08-21T00:29:01;4.00;;;2.63;;
81930;SDS011;71395;43.488;1.472;2023-08-21T00:31:27;5.18;;;3.10;;
81930;SDS011;71395;43.488;1.472;2023-08-21T00:33:52;4.38;;;2.50;;
81930;SDS011;71395;43.488;1.472;2023-08-21T00:36:18;4.40;;;2.72;;
81930;SDS011;71395;43.488;1.472;2023-08-21T00:38:44;5.07;;;2.60;;
81930;SDS011;71395;43.488;1.472;2023-08-21T00:41:10;4.45;;;3.00;;
81930;SDS011;71395;43.488;1.472;2023-08-21T00:43:35;8.27;;;2.35;;
81930;SDS011;71395;43.488;1.472;2023-08-21T00:46:01;5.20;;;2.60;;
81930;SDS011;71395;43.488;1.472;2023-08-21T00:48:27;4.88;;;2.58;;
81930;SDS011;71395;43.488;1.472;2023-08-21T00:50:52;5.78;;;2.95;;
81930;SDS011;71395;43.488;1.472;2023-08-21T00:53:18;5.68;;;2.50;;
81930;SDS011;71395;43.488;1.472;2023-08-21T00:55:43;3.45;;;2.30;;
81930;SDS011;71395;43.488;1.472;2023-08-21T00:58:10;4.53;;;2.60;;
81930;SDS011;71395;43.488;1.472;2023-08-21T01:00:37;4.40;;;2.83;;
81930;SDS011;71395;43.488;1.472;2023-08-21T01:03:03;5.65;;;2.90;;
81930;SDS011;71395;43.488;1.472;2023-08-21T01:05:29;5.97;;;2.70;;
81930;SDS011;71395;43.488;1.472;2023-08-21T01:08:10;4.60;;;2.50;;
81930;SDS011;71395;43.488;1.472;2023-08-21T01:13:15;4.97;;;2.95;;
81930;SDS011;71395;43.488;1.472;2023-08-21T01:15:48;4.65;;;2.67;;
81930;SDS011;71395;43.488;1.472;2023-08-21T01:18:17;5.60;;;2.90;;
81930;SDS011;71395;43.488;1.472;2023-08-21T01:20:43;4.97;;;2.22;;
81930;SDS011;71395;43.488;1.472;2023-08-21T01:23:09;5.93;;;2.67;;
81930;SDS011;71395;43.488;1.472;2023-08-21T01:25:34;4.97;;;2.70;;
81930;SDS011;71395;43.488;1.472;2023-08-21T01:28:00;4.97;;;2.58;;
81930;SDS011;71395;43.488;1.472;2023-08-21T01:30:26;5.40;;;2.60;;
81930;SDS011;71395;43.488;1.472;2023-08-21T01:33:05;4.07;;;2.45;;
81930;SDS011;71395;43.488;1.472;2023-08-21T01:35:35;5.97;;;2.72;;
81930;SDS011;71395;43.488;1.472;2023-08-21T01:38:04;4.60;;;2.30;;
81930;SDS011;71395;43.488;1.472;2023-08-21T01:40:30;5.25;;;2.33;;
81930;SDS011;71395;43.488;1.472;2023-08-21T01:42:55;3.90;;;2.45;;
81930;SDS011;71395;43.488;1.472;2023-08-21T01:45:21;5.32;;;2.65;;
81930;SDS011;71395;43.488;1.472;2023-08-21T01:47:47;4.60;;;2.60;;
81930;SDS011;71395;43.488;1.472;2023-08-21T01:50:12;5.18;;;2.10;;
81930;SDS011;71395;43.488;1.472;2023-08-21T01:52:38;5.18;;;2.50;;
81930;SDS011;71395;43.488;1.472;2023-08-21T01:55:03;4.93;;;2.50;;
81930;SDS011;71395;43.488;1.472;2023-08-21T01:57:29;5.38;;;2.40;;
81930;SDS011;71395;43.488;1.472;2023-08-21T01:59:55;5.15;;;2.63;;
81930;SDS011;71395;43.488;1.472;2023-08-21T02:02:20;4.07;;;2.30;;
81930;SDS011;71395;43.488;1.472;2023-08-21T02:04:45;5.60;;;2.50;;
81930;SDS011;71395;43.488;1.472;2023-08-21T02:07:11;4.43;;;1.95;;
81930;SDS011;71395;43.488;1.472;2023-08-21T02:09:36;4.63;;;2.33;;
81930;SDS011;71395;43.488;1.472;2023-08-21T02:12:02;7.38;;;2.38;;
81930;SDS011;71395;43.488;1.472;2023-08-21T02:14:27;5.30;;;2.25;;
81930;SDS011;71395;43.488;1.472;2023-08-21T02:16:53;4.10;;;1.92;;
81930;SDS011;71395;43.488;1.472;2023-08-21T02:19:18;5.88;;;2.17;;
81930;SDS011;71395;43.488;1.472;2023-08-21T02:21:44;5.18;;;1.85;;
81930;SDS011;71395;43.488;1.472;2023-08-21T02:24:09;6.45;;;2.30;;
81930;SDS011;71395;43.488;1.472;2023-08-21T02:26:34;3.95;;;2.10;;
81930;SDS011;71395;43.488;1.472;2023-08-21T02:29:00;4.30;;;2.10;;
81930;SDS011;71395;43.488;1.472;2023-08-21T02:31:25;4.88;;;1.92;;
81930;SDS011;71395;43.488;1.472;2023-08-21T02:33:51;5.00;;;2.35;;
81930;SDS011;71395;43.488;1.472;2023-08-21T02:36:16;6.65;;;2.35;;
81930;SDS011;71395;43.488;1.472;2023-08-21T02:38:42;4.13;;;2.25;;
81930;SDS011;71395;43.488;1.472;2023-08-21T02:41:07;6.00;;;2.28;;
81930;SDS011;71395;43.488;1.472;2023-08-21T02:43:33;5.18;;;2.25;;
81930;SDS011;71395;43.488;1.472;2023-08-21T02:45:59;4.90;;;2.30;;
81930;SDS011;71395;43.488;1.472;2023-08-21T02:48:24;4.78;;;2.08;;
81930;SDS011;71395;43.488;1.472;2023-08-21T02:50:49;6.22;;;2.10;;
81930;SDS011;71395;43.488;1.472;2023-08-21T02:53:15;6.22;;;2.30;;
81930;SDS011;71395;43.488;1.472;2023-08-21T02:55:40;4.85;;;2.35;;
81930;SDS011;71395;43.488;1.472;2023-08-21T02:58:06;5.97;;;2.60;;
81930;SDS011;71395;43.488;1.472;2023-08-21T03:00:31;4.15;;;2.08;;
81930;SDS011;71395;43.488;1.472;2023-08-21T03:02:56;5.72;;;2.00;;
81930;SDS011;71395;43.488;1.472;2023-08-21T03:05:22;3.88;;;1.80;;
81930;SDS011;71395;43.488;1.472;2023-08-21T03:07:47;6.35;;;2.00;;
81930;SDS011;71395;43.488;1.472;2023-08-21T03:10:13;4.40;;;2.00;;
81930;SDS011;71395;43.488;1.472;2023-08-21T03:12:38;3.78;;;2.03;;
81930;SDS011;71395;43.488;1.472;2023-08-21T03:15:03;6.72;;;2.13;;
81930;SDS011;71395;43.488;1.472;2023-08-21T03:17:29;4.28;;;2.05;;
81930;SDS011;71395;43.488;1.472;2023-08-21T03:19:55;4.57;;;1.92;;
81930;SDS011;71395;43.488;1.472;2023-08-21T03:22:20;4.97;;;2.08;;
81930;SDS011;71395;43.488;1.472;2023-08-21T03:24:46;4.60;;;2.00;;
81930;SDS011;71395;43.488;1.472;2023-08-21T03:27:13;4.30;;;1.95;;
81930;SDS011;71395;43.488;1.472;2023-08-21T03:29:40;4.43;;;1.85;;
81930;SDS011;71395;43.488;1.472;2023-08-21T03:32:05;4.68;;;2.30;;
81930;SDS011;71395;43.488;1.472;2023-08-21T03:34:31;4.03;;;1.90;;
81930;SDS011;71395;43.488;1.472;2023-08-21T03:36:56;3.72;;;1.80;;
81930;SDS011;71395;43.488;1.472;2023-08-21T03:39:22;5.30;;;1.90;;
81930;SDS011;71395;43.488;1.472;2023-08-21T03:41:47;4.47;;;2.00;;
81930;SDS011;71395;43.488;1.472;2023-08-21T03:44:13;4.28;;;1.85;;
81930;SDS011;71395;43.488;1.472;2023-08-21T03:46:38;3.13;;;1.90;;
81930;SDS011;71395;43.488;1.472;2023-08-21T03:49:05;3.85;;;1.90;;
81930;SDS011;71395;43.488;1.472;2023-08-21T03:51:30;4.45;;;2.05;;
81930;SDS011;71395;43.488;1.472;2023-08-21T03:53:55;4.72;;;1.92;;
81930;SDS011;71395;43.488;1.472;2023-08-21T03:56:21;3.92;;;1.73;;
81930;SDS011;71395;43.488;1.472;2023-08-21T03:58:48;4.25;;;1.85;;
81930;SDS011;71395;43.488;1.472;2023-08-21T04:01:13;5.85;;;1.90;;
81930;SDS011;71395;43.488;1.472;2023-08-21T04:03:39;3.88;;;1.90;;
81930;SDS011;71395;43.488;1.472;2023-08-21T04:06:04;3.97;;;2.10;;
81930;SDS011;71395;43.488;1.472;2023-08-21T04:08:29;5.28;;;1.90;;
81930;SDS011;71395;43.488;1.472;2023-08-21T04:10:55;3.38;;;1.80;;
81930;SDS011;71395;43.488;1.472;2023-08-21T04:13:24;4.57;;;1.88;;
81930;SDS011;71395;43.488;1.472;2023-08-21T04:15:50;5.05;;;1.88;;
81930;SDS011;71395;43.488;1.472;2023-08-21T04:18:16;4.53;;;1.63;;
81930;SDS011;71395;43.488;1.472;2023-08-21T04:20:41;4.88;;;1.70;;
81930;SDS011;71395;43.488;1.472;2023-08-21T04:23:06;5.38;;;1.95;;
81930;SDS011;71395;43.488;1.472;2023-08-21T04:25:32;4.10;;;1.70;;
81930;SDS011;71395;43.488;1.472;2023-08-21T04:27:57;4.75;;;1.90;;
81930;SDS011;71395;43.488;1.472;2023-08-21T04:30:22;3.95;;;1.83;;
81930;SDS011;71395;43.488;1.472;2023-08-21T04:32:48;3.92;;;1.90;;
81930;SDS011;71395;43.488;1.472;2023-08-21T04:35:13;4.45;;;1.90;;
81930;SDS011;71395;43.488;1.472;2023-08-21T04:37:42;4.53;;;1.70;;
81930;SDS011;71395;43.488;1.472;2023-08-21T04:40:11;4.78;;;1.90;;
81930;SDS011;71395;43.488;1.472;2023-08-21T04:42:36;3.78;;;2.22;;
81930;SDS011;71395;43.488;1.472;2023-08-21T04:45:02;4.32;;;1.90;;
81930;SDS011;71395;43.488;1.472;2023-08-21T04:47:28;4.05;;;1.85;;
81930;SDS011;71395;43.488;1.472;2023-08-21T04:49:53;4.13;;;1.60;;
81930;SDS011;71395;43.488;1.472;2023-08-21T04:52:20;4.15;;;1.90;;
81930;SDS011;71395;43.488;1.472;2023-08-21T04:54:49;4.95;;;1.83;;
81930;SDS011;71395;43.488;1.472;2023-08-21T04:57:15;4.22;;;2.10;;
81930;SDS011;71395;43.488;1.472;2023-08-21T04:59:41;2.90;;;1.63;;
81930;SDS011;71395;43.488;1.472;2023-08-21T05:02:07;3.60;;;1.70;;
81930;SDS011;71395;43.488;1.472;2023-08-21T05:04:33;4.07;;;1.85;;
81930;SDS011;71395;43.488;1.472;2023-08-21T05:07:00;5.30;;;2.10;;
81930;SDS011;71395;43.488;1.472;2023-08-21T05:09:26;3.45;;;1.65;;
81930;SDS011;71395;43.488;1.472;2023-08-21T05:11:51;4.05;;;1.60;;
81930;SDS011;71395;43.488;1.472;2023-08-21T05:14:17;3.40;;;1.75;;
81930;SDS011;71395;43.488;1.472;2023-08-21T05:16:44;4.43;;;1.88;;
81930;SDS011;71395;43.488;1.472;2023-08-21T05:19:10;3.58;;;1.83;;
81930;SDS011;71395;43.488;1.472;2023-08-21T05:21:35;3.15;;;1.42;;
81930;SDS011;71395;43.488;1.472;2023-08-21T05:24:01;3.95;;;1.50;;
81930;SDS011;71395;43.488;1.472;2023-08-21T05:26:26;3.58;;;1.70;;
81930;SDS011;71395;43.488;1.472;2023-08-21T05:28:51;3.72;;;1.70;;
81930;SDS011;71395;43.488;1.472;2023-08-21T05:31:17;3.60;;;1.73;;
81930;SDS011;71395;43.488;1.472;2023-08-21T05:33:42;3.05;;;1.55;;
81930;SDS011;71395;43.488;1.472;2023-08-21T05:36:07;3.88;;;2.08;;
81930;SDS011;71395;43.488;1.472;2023-08-21T05:38:33;3.95;;;1.70;;
81930;SDS011;71395;43.488;1.472;2023-08-21T05:40:58;3.10;;;1.65;;
81930;SDS011;71395;43.488;1.472;2023-08-21T05:43:24;5.55;;;1.90;;
81930;SDS011;71395;43.488;1.472;2023-08-21T05:45:49;3.53;;;1.70;;
81930;SDS011;71395;43.488;1.472;2023-08-21T05:48:15;3.83;;;1.98;;
81930;SDS011;71395;43.488;1.472;2023-08-21T05:50:41;3.40;;;1.73;;
81930;SDS011;71395;43.488;1.472;2023-08-21T05:53:07;4.10;;;1.80;;
81930;SDS011;71395;43.488;1.472;2023-08-21T05:55:32;4.13;;;1.60;;
81930;SDS011;71395;43.488;1.472;2023-08-21T05:57:58;4.15;;;1.92;;
81930;SDS011;71395;43.488;1.472;2023-08-21T06:00:23;5.03;;;1.77;;
81930;SDS011;71395;43.488;1.472;2023-08-21T06:02:49;3.95;;;2.05;;
81930;SDS011;71395;43.488;1.472;2023-08-21T06:05:14;5.53;;;1.83;;
81930;SDS011;71395;43.488;1.472;2023-08-21T06:07:40;4.15;;;1.70;;
81930;SDS011;71395;43.488;1.472;2023-08-21T06:10:09;5.78;;;1.60;;
81930;SDS011;71395;43.488;1.472;2023-08-21T06:12:41;6.70;;;1.95;;
81930;SDS011;71395;43.488;1.472;2023-08-21T06:15:07;6.43;;;2.25;;
81930;SDS011;71395;43.488;1.472;2023-08-21T06:17:33;5.70;;;2.05;;
81930;SDS011;71395;43.488;1.472;2023-08-21T06:19:59;4.88;;;1.67;;
81930;SDS011;71395;43.488;1.472;2023-08-21T06:22:24;8.38;;;2.10;;
81930;SDS011;71395;43.488;1.472;2023-08-21T06:24:50;6.43;;;1.90;;
81930;SDS011;71395;43.488;1.472;2023-08-21T06:27:15;6.75;;;2.20;;
81930;SDS011;71395;43.488;1.472;2023-08-21T06:29:41;6.10;;;1.90;;
81930;SDS011;71395;43.488;1.472;2023-08-21T06:32:06;5.05;;;1.80;;
81930;SDS011;71395;43.488;1.472;2023-08-21T06:34:31;5.03;;;2.00;;
81930;SDS011;71395;43.488;1.472;2023-08-21T06:36:57;5.53;;;2.40;;
81930;SDS011;71395;43.488;1.472;2023-08-21T06:39:22;4.55;;;1.58;;
81930;SDS011;71395;43.488;1.472;2023-08-21T06:41:48;6.72;;;1.98;;
81930;SDS011;71395;43.488;1.472;2023-08-21T06:44:13;5.80;;;2.00;;
81930;SDS011;71395;43.488;1.472;2023-08-21T06:46:38;5.82;;;1.90;;
81930;SDS011;71395;43.488;1.472;2023-08-21T06:49:04;7.10;;;2.10;;
81930;SDS011;71395;43.488;1.472;2023-08-21T06:51:29;7.03;;;1.90;;
81930;SDS011;71395;43.488;1.472;2023-08-21T06:53:54;8.32;;;2.13;;
81930;SDS011;71395;43.488;1.472;2023-08-21T06:56:20;6.20;;;2.10;;
81930;SDS011;71395;43.488;1.472;2023-08-21T06:58:45;5.20;;;1.73;;
81930;SDS011;71395;43.488;1.472;2023-08-21T07:01:11;5.53;;;2.00;;
81930;SDS011;71395;43.488;1.472;2023-08-21T07:03:36;6.55;;;1.90;;
81930;SDS011;71395;43.488;1.472;2023-08-21T07:06:02;7.32;;;2.20;;
81930;SDS011;71395;43.488;1.472;2023-08-21T07:08:28;7.25;;;1.92;;
81930;SDS011;71395;43.488;1.472;2023-08-21T07:10:53;4.80;;;1.92;;
81930;SDS011;71395;43.488;1.472;2023-08-21T07:13:19;6.32;;;1.88;;
81930;SDS011;71395;43.488;1.472;2023-08-21T07:15:45;5.88;;;1.90;;
81930;SDS011;71395;43.488;1.472;2023-08-21T07:18:11;5.03;;;2.05;;
81930;SDS011;71395;43.488;1.472;2023-08-21T07:20:36;5.75;;;2.20;;
81930;SDS011;71395;43.488;1.472;2023-08-21T07:23:01;5.45;;;2.10;;
81930;SDS011;71395;43.488;1.472;2023-08-21T07:25:27;5.13;;;1.90;;
81930;SDS011;71395;43.488;1.472;2023-08-21T07:27:56;4.75;;;2.20;;
81930;SDS011;71395;43.488;1.472;2023-08-21T07:30:21;6.70;;;2.10;;
81930;SDS011;71395;43.488;1.472;2023-08-21T07:32:47;6.20;;;2.17;;
81930;SDS011;71395;43.488;1.472;2023-08-21T07:35:13;6.47;;;2.40;;
81930;SDS011;71395;43.488;1.472;2023-08-21T07:37:39;7.57;;;2.17;;
81930;SDS011;71395;43.488;1.472;2023-08-21T07:40:08;5.88;;;2.17;;
81930;SDS011;71395;43.488;1.472;2023-08-21T07:42:33;6.68;;;2.13;;
81930;SDS011;71395;43.488;1.472;2023-08-21T07:44:59;4.72;;;1.70;;
81930;SDS011;71395;43.488;1.472;2023-08-21T07:47:26;5.65;;;1.85;;
81930;SDS011;71395;43.488;1.472;2023-08-21T07:49:52;4.30;;;1.65;;
81930;SDS011;71395;43.488;1.472;2023-08-21T07:52:17;6.25;;;2.25;;
81930;SDS011;71395;43.488;1.472;2023-08-21T07:54:43;6.47;;;2.25;;
81930;SDS011;71395;43.488;1.472;2023-08-21T07:57:08;7.10;;;2.08;;
81930;SDS011;71395;43.488;1.472;2023-08-21T07:59:33;5.57;;;2.05;;
81930;SDS011;71395;43.488;1.472;2023-08-21T08:01:59;5.68;;;2.20;;
81930;SDS011;71395;43.488;1.472;2023-08-21T08:04:25;4.80;;;2.13;;
81930;SDS011;71395;43.488;1.472;2023-08-21T08:06:51;8.80;;;2.30;;
81930;SDS011;71395;43.488;1.472;2023-08-21T08:09:17;6.05;;;1.90;;
81930;SDS011;71395;43.488;1.472;2023-08-21T08:11:42;6.95;;;2.03;;
81930;SDS011;71395;43.488;1.472;2023-08-21T08:14:07;8.27;;;2.47;;
81930;SDS011;71395;43.488;1.472;2023-08-21T08:16:33;7.57;;;1.90;;
81930;SDS011;71395;43.488;1.472;2023-08-21T08:18:58;9.38;;;2.10;;
81930;SDS011;71395;43.488;1.472;2023-08-21T08:21:23;6.05;;;2.13;;
81930;SDS011;71395;43.488;1.472;2023-08-21T08:23:49;5.80;;;2.00;;
81930;SDS011;71395;43.488;1.472;2023-08-21T08:26:14;6.22;;;2.63;;
81930;SDS011;71395;43.488;1.472;2023-08-21T08:28:41;5.68;;;2.45;;
81930;SDS011;71395;43.488;1.472;2023-08-21T08:31:13;6.45;;;2.05;;
81930;SDS011;71395;43.488;1.472;2023-08-21T08:33:39;4.97;;;2.10;;
81930;SDS011;71395;43.488;1.472;2023-08-21T08:36:05;7.47;;;2.28;;
81930;SDS011;71395;43.488;1.472;2023-08-21T08:38:30;7.68;;;2.00;;
81930;SDS011;71395;43.488;1.472;2023-08-21T08:40:55;7.15;;;2.10;;
81930;SDS011;71395;43.488;1.472;2023-08-21T08:43:22;5.15;;;2.20;;
81930;SDS011;71395;43.488;1.472;2023-08-21T08:45:50;10.13;;;2.53;;
81930;SDS011;71395;43.488;1.472;2023-08-21T08:48:17;5.00;;;2.30;;
81930;SDS011;71395;43.488;1.472;2023-08-21T08:50:45;4.85;;;2.30;;
81930;SDS011;71395;43.488;1.472;2023-08-21T08:53:12;7.03;;;2.35;;
81930;SDS011;71395;43.488;1.472;2023-08-21T08:55:39;5.45;;;2.17;;
81930;SDS011;71395;43.488;1.472;2023-08-21T08:58:04;7.20;;;2.22;;
81930;SDS011;71395;43.488;1.472;2023-08-21T09:00:30;5.93;;;2.20;;
81930;SDS011;71395;43.488;1.472;2023-08-21T09:02:56;5.95;;;2.30;;
81930;SDS011;71395;43.488;1.472;2023-08-21T09:05:23;6.38;;;2.70;;
81930;SDS011;71395;43.488;1.472;2023-08-21T09:08:09;7.22;;;2.20;;
81930;SDS011;71395;43.488;1.472;2023-08-21T09:10:36;6.57;;;2.03;;
81930;SDS011;71395;43.488;1.472;2023-08-21T09:13:36;5.45;;;2.17;;
81930;SDS011;71395;43.488;1.472;2023-08-21T09:15:56;5.63;;;2.05;;
81930;SDS011;71395;43.488;1.472;2023-08-21T09:18:21;5.15;;;2.00;;
81930;SDS011;71395;43.488;1.472;2023-08-21T09:20:47;5.15;;;2.05;;
81930;SDS011;71395;43.488;1.472;2023-08-21T09:23:16;5.35;;;2.10;;
81930;SDS011;71395;43.488;1.472;2023-08-21T09:25:48;6.82;;;2.45;;
81930;SDS011;71395;43.488;1.472;2023-08-21T09:28:14;6.28;;;2.13;;
81930;SDS011;71395;43.488;1.472;2023-08-21T09:30:50;7.88;;;2.40;;
81930;SDS011;71395;43.488;1.472;2023-08-21T09:33:18;4.50;;;2.03;;
81930;SDS011;71395;43.488;1.472;2023-08-21T09:35:48;4.90;;;2.00;;
81930;SDS011;71395;43.488;1.472;2023-08-21T09:38:14;6.65;;;2.22;;
81930;SDS011;71395;43.488;1.472;2023-08-21T09:40:43;6.32;;;2.53;;
81930;SDS011;71395;43.488;1.472;2023-08-21T09:43:16;5.97;;;2.30;;
81930;SDS011;71395;43.488;1.472;2023-08-21T09:45:42;5.43;;;2.20;;
81930;SDS011;71395;43.488;1.472;2023-08-21T09:48:11;5.88;;;2.10;;
81930;SDS011;71395;43.488;1.472;2023-08-21T09:50:38;5.95;;;2.47;;
81930;SDS011;71395;43.488;1.472;2023-08-21T09:53:06;5.70;;;2.70;;
81930;SDS011;71395;43.488;1.472;2023-08-21T09:55:32;7.15;;;2.50;;
81930;SDS011;71395;43.488;1.472;2023-08-21T09:58:01;5.88;;;2.15;;
81930;SDS011;71395;43.488;1.472;2023-08-21T10:00:31;3.65;;;1.95;;
81930;SDS011;71395;43.488;1.472;2023-08-21T10:03:01;7.25;;;2.42;;
81930;SDS011;71395;43.488;1.472;2023-08-21T10:05:29;5.75;;;2.30;;
81930;SDS011;71395;43.488;1.472;2023-08-21T10:08:02;7.85;;;2.28;;
81930;SDS011;71395;43.488;1.472;2023-08-21T10:10:33;5.55;;;2.42;;
81930;SDS011;71395;43.488;1.472;2023-08-21T10:13:00;7.28;;;2.58;;
81930;SDS011;71395;43.488;1.472;2023-08-21T10:15:27;5.55;;;2.40;;
81930;SDS011;71395;43.488;1.472;2023-08-21T10:17:53;6.28;;;2.35;;
81930;SDS011;71395;43.488;1.472;2023-08-21T10:20:22;7.20;;;2.83;;
81930;SDS011;71395;43.488;1.472;2023-08-21T10:22:52;6.15;;;2.22;;
81930;SDS011;71395;43.488;1.472;2023-08-21T10:25:23;5.25;;;2.20;;
81930;SDS011;71395;43.488;1.472;2023-08-21T10:27:54;5.70;;;2.70;;
81930;SDS011;71395;43.488;1.472;2023-08-21T10:30:24;5.88;;;2.50;;
81930;SDS011;71395;43.488;1.472;2023-08-21T10:32:52;3.95;;;2.20;;
81930;SDS011;71395;43.488;1.472;2023-08-21T10:35:20;4.85;;;2.22;;
81930;SDS011;71395;43.488;1.472;2023-08-21T10:43:37;4.90;;;2.33;;
81930;SDS011;71395;43.488;1.472;2023-08-21T10:46:06;6.68;;;2.17;;
81930;SDS011;71395;43.488;1.472;2023-08-21T10:48:32;4.95;;;2.55;;
81930;SDS011;71395;43.488;1.472;2023-08-21T10:50:58;5.13;;;2.30;;
81930;SDS011;71395;43.488;1.472;2023-08-21T10:53:28;4.88;;;2.42;;
81930;SDS011;71395;43.488;1.472;2023-08-21T10:55:54;7.35;;;2.72;;
81930;SDS011;71395;43.488;1.472;2023-08-21T10:58:19;5.18;;;2.47;;
81930;SDS011;71395;43.488;1.472;2023-08-21T11:00:45;4.38;;;2.17;;
81930;SDS011;71395;43.488;1.472;2023-08-21T11:03:10;6.53;;;2.97;;
81930;SDS011;71395;43.488;1.472;2023-08-21T11:05:36;6.38;;;2.22;;
81930;SDS011;71395;43.488;1.472;2023-08-21T11:08:01;6.85;;;2.42;;
81930;SDS011;71395;43.488;1.472;2023-08-21T11:10:29;6.60;;;2.63;;
81930;SDS011;71395;43.488;1.472;2023-08-21T11:12:56;4.63;;;2.15;;
81930;SDS011;71395;43.488;1.472;2023-08-21T11:15:24;6.10;;;2.38;;
81930;SDS011;71395;43.488;1.472;2023-08-21T11:17:51;6.95;;;2.38;;
81930;SDS011;71395;43.488;1.472;2023-08-21T11:20:20;5.60;;;2.60;;
81930;SDS011;71395;43.488;1.472;2023-08-21T11:22:45;5.93;;;2.35;;
81930;SDS011;71395;43.488;1.472;2023-08-21T11:25:11;6.13;;;2.50;;
81930;SDS011;71395;43.488;1.472;2023-08-21T11:27:37;4.72;;;2.53;;
81930;SDS011;71395;43.488;1.472;2023-08-21T11:30:02;6.38;;;2.50;;
81930;SDS011;71395;43.488;1.472;2023-08-21T11:32:29;5.35;;;2.72;;
81930;SDS011;71395;43.488;1.472;2023-08-21T11:34:55;7.15;;;2.50;;
81930;SDS011;71395;43.488;1.472;2023-08-21T11:37:25;6.95;;;2.90;;
81930;SDS011;71395;43.488;1.472;2023-08-21T11:42:19;6.53;;;2.13;;
81930;SDS011;71395;43.488;1.472;2023-08-21T11:44:52;4.68;;;2.45;;
81930;SDS011;71395;43.488;1.472;2023-08-21T11:47:19;6.50;;;2.50;;
81930;SDS011;71395;43.488;1.472;2023-08-21T11:49:46;5.50;;;2.83;;
81930;SDS011;71395;43.488;1.472;2023-08-21T11:52:21;6.57;;;2.67;;
81930;SDS011;71395;43.488;1.472;2023-08-21T11:54:51;5.68;;;2.47;;
81930;SDS011;71395;43.488;1.472;2023-08-21T11:57:18;4.80;;;2.50;;
81930;SDS011;71395;43.488;1.472;2023-08-21T11:59:54;6.03;;;2.35;;
81930;SDS011;71395;43.488;1.472;2023-08-21T12:02:29;5.22;;;2.60;;
81930;SDS011;71395;43.488;1.472;2023-08-21T12:05:01;7.53;;;2.30;;
81930;SDS011;71395;43.488;1.472;2023-08-21T12:07:28;4.65;;;2.55;;
81930;SDS011;71395;43.488;1.472;2023-08-21T12:09:54;5.85;;;2.20;;
81930;SDS011;71395;43.488;1.472;2023-08-21T12:12:19;5.82;;;2.70;;
81930;SDS011;71395;43.488;1.472;2023-08-21T12:14:45;7.28;;;2.58;;
81930;SDS011;71395;43.488;1.472;2023-08-21T12:17:11;4.18;;;2.60;;
81930;SDS011;71395;43.488;1.472;2023-08-21T12:19:36;4.25;;;2.30;;
81930;SDS011;71395;43.488;1.472;2023-08-21T12:22:02;4.53;;;2.20;;
81930;SDS011;71395;43.488;1.472;2023-08-21T12:24:28;6.78;;;2.28;;
81930;SDS011;71395;43.488;1.472;2023-08-21T12:26:53;6.68;;;2.67;;
81930;SDS011;71395;43.488;1.472;2023-08-21T12:29:18;5.03;;;2.60;;
81930;SDS011;71395;43.488;1.472;2023-08-21T12:31:44;7.40;;;2.45;;
81930;SDS011;71395;43.488;1.472;2023-08-21T12:34:09;4.40;;;2.20;;
81930;SDS011;71395;43.488;1.472;2023-08-21T12:36:35;4.68;;;2.33;;
81930;SDS011;71395;43.488;1.472;2023-08-21T12:39:02;5.00;;;2.65;;
81930;SDS011;71395;43.488;1.472;2023-08-21T12:41:28;5.35;;;2.42;;
81930;SDS011;71395;43.488;1.472;2023-08-21T12:43:54;5.25;;;2.40;;
81930;SDS011;71395;43.488;1.472;2023-08-21T12:46:19;4.10;;;2.35;;
81930;SDS011;71395;43.488;1.472;2023-08-21T12:48:45;4.38;;;2.50;;
81930;SDS011;71395;43.488;1.472;2023-08-21T12:51:10;5.15;;;2.20;;
81930;SDS011;71395;43.488;1.472;2023-08-21T12:53:37;4.47;;;2.35;;
81930;SDS011;71395;43.488;1.472;2023-08-21T12:56:02;3.88;;;2.30;;
81930;SDS011;71395;43.488;1.472;2023-08-21T12:58:28;3.88;;;2.20;;
81930;SDS011;71395;43.488;1.472;2023-08-21T13:00:54;5.60;;;2.33;;
81930;SDS011;71395;43.488;1.472;2023-08-21T13:03:20;4.15;;;2.25;;
81930;SDS011;71395;43.488;1.472;2023-08-21T13:05:45;4.80;;;2.50;;
81930;SDS011;71395;43.488;1.472;2023-08-21T13:08:11;3.63;;;2.30;;
81930;SDS011;71395;43.488;1.472;2023-08-21T13:10:36;7.82;;;2.40;;
81930;SDS011;71395;43.488;1.472;2023-08-21T13:13:02;4.55;;;2.28;;
81930;SDS011;71395;43.488;1.472;2023-08-21T13:15:28;3.92;;;2.40;;
81930;SDS011;71395;43.488;1.472;2023-08-21T13:17:53;4.15;;;2.25;;
81930;SDS011;71395;43.488;1.472;2023-08-21T13:20:19;4.10;;;2.08;;
81930;SDS011;71395;43.488;1.472;2023-08-21T13:22:47;4.10;;;2.45;;
81930;SDS011;71395;43.488;1.472;2023-08-21T13:25:23;3.75;;;2.15;;
81930;SDS011;71395;43.488;1.472;2023-08-21T13:27:52;4.53;;;2.15;;
81930;SDS011;71395;43.488;1.472;2023-08-21T13:30:18;4.20;;;2.40;;
81930;SDS011;71395;43.488;1.472;2023-08-21T13:32:45;4.22;;;2.42;;
81930;SDS011;71395;43.488;1.472;2023-08-21T13:35:11;4.97;;;2.40;;
81930;SDS011;71395;43.488;1.472;2023-08-21T13:37:37;4.20;;;2.35;;
81930;SDS011;71395;43.488;1.472;2023-08-21T13:40:03;5.57;;;2.38;;
81930;SDS011;71395;43.488;1.472;2023-08-21T13:42:38;4.07;;;2.63;;
81930;SDS011;71395;43.488;1.472;2023-08-21T13:45:12;3.63;;;2.55;;
81930;SDS011;71395;43.488;1.472;2023-08-21T13:47:40;4.05;;;2.60;;
81930;SDS011;71395;43.488;1.472;2023-08-21T13:50:06;5.25;;;2.60;;
81930;SDS011;71395;43.488;1.472;2023-08-21T13:52:33;4.40;;;2.40;;
81930;SDS011;71395;43.488;1.472;2023-08-21T13:54:59;4.10;;;2.40;;
81930;SDS011;71395;43.488;1.472;2023-08-21T13:57:24;5.15;;;2.55;;
81930;SDS011;71395;43.488;1.472;2023-08-21T13:59:50;3.90;;;2.60;;
81930;SDS011;71395;43.488;1.472;2023-08-21T14:02:15;4.82;;;2.75;;
81930;SDS011;71395;43.488;1.472;2023-08-21T14:04:41;4.75;;;2.40;;
81930;SDS011;71395;43.488;1.472;2023-08-21T14:07:06;3.78;;;2.40;;
81930;SDS011;71395;43.488;1.472;2023-08-21T14:09:31;4.25;;;3.08;;
81930;SDS011;71395;43.488;1.472;2023-08-21T14:11:57;4.32;;;2.53;;
81930;SDS011;71395;43.488;1.472;2023-08-21T14:14:22;5.95;;;2.70;;
81930;SDS011;71395;43.488;1.472;2023-08-21T14:16:48;3.53;;;2.10;;
81930;SDS011;71395;43.488;1.472;2023-08-21T14:19:13;4.30;;;2.17;;
81930;SDS011;71395;43.488;1.472;2023-08-21T14:21:38;4.30;;;2.08;;
81930;SDS011;71395;43.488;1.472;2023-08-21T14:24:04;2.70;;;1.90;;
81930;SDS011;71395;43.488;1.472;2023-08-21T14:26:30;4.90;;;2.70;;
81930;SDS011;71395;43.488;1.472;2023-08-21T14:28:55;4.55;;;2.00;;
81930;SDS011;71395;43.488;1.472;2023-08-21T14:31:20;4.38;;;2.33;;
81930;SDS011;71395;43.488;1.472;2023-08-21T14:33:46;3.60;;;2.47;;
81930;SDS011;71395;43.488;1.472;2023-08-21T14:36:11;4.25;;;2.13;;
81930;SDS011;71395;43.488;1.472;2023-08-21T14:38:37;3.30;;;2.20;;
81930;SDS011;71395;43.488;1.472;2023-08-21T14:41:02;2.85;;;2.00;;
81930;SDS011;71395;43.488;1.472;2023-08-21T14:43:28;3.63;;;2.50;;
81930;SDS011;71395;43.488;1.472;2023-08-21T14:45:57;3.88;;;2.42;;
81930;SDS011;71395;43.488;1.472;2023-08-21T14:48:22;3.15;;;2.40;;
81930;SDS011;71395;43.488;1.472;2023-08-21T14:50:48;3.92;;;2.38;;
81930;SDS011;71395;43.488;1.472;2023-08-21T14:53:13;3.45;;;2.10;;
81930;SDS011;71395;43.488;1.472;2023-08-21T14:55:38;3.63;;;2.20;;